createdAt,value
2022-10-17T00:00:26.702Z,8.10
2022-10-17T00:03:19.527Z,7.90
2022-10-17T00:05:52.257Z,8.10
2022-10-17T00:08:24.767Z,7.50
2022-10-17T00:11:02.857Z,7.80
2022-10-17T00:13:35.756Z,7.60
2022-10-17T00:16:08.879Z,8.10
2022-10-17T00:18:42.515Z,7.20
2022-10-17T00:21:23.296Z,7.00
2022-10-17T00:23:57.221Z,6.80
2022-10-17T00:26:33.899Z,6.80
2022-10-17T00:29:07.190Z,6.80
2022-10-17T00:31:40.506Z,6.50
2022-10-17T00:34:13.451Z,6.90
2022-10-17T00:36:46.200Z,7.20
2022-10-17T00:39:18.806Z,7.40
2022-10-17T00:41:56.666Z,7.80
2022-10-17T00:44:34.934Z,8.50
2022-10-17T00:47:14.595Z,7.00
2022-10-17T00:49:47.866Z,7.40
2022-10-17T00:52:32.574Z,7.40
2022-10-17T00:55:20.039Z,7.60
2022-10-17T00:57:55.089Z,7.30
2022-10-17T01:00:30.927Z,7.00
2022-10-17T01:03:05.262Z,7.60
2022-10-17T01:05:39.268Z,6.80
2022-10-17T01:08:13.381Z,6.10
2022-10-17T01:11:08.760Z,6.10
2022-10-17T01:13:50.981Z,6.10
2022-10-17T01:16:57.764Z,6.20
2022-10-17T01:19:39.150Z,6.00
2022-10-17T01:22:26.203Z,6.50
2022-10-17T01:25:30.999Z,6.40
2022-10-17T01:31:18.457Z,6.80
2022-10-17T01:33:54.190Z,6.60
2022-10-17T01:36:50.629Z,7.10
2022-10-17T01:39:48.228Z,7.10
2022-10-17T01:42:40.615Z,6.90
2022-10-17T01:45:41.566Z,7.00
2022-10-17T01:48:25.088Z,7.00
2022-10-17T01:51:10.474Z,7.20
2022-10-17T01:53:50.019Z,6.50
2022-10-17T01:56:26.882Z,6.40
2022-10-17T01:59:05.359Z,6.30
2022-10-17T02:01:42.617Z,6.00
2022-10-17T02:04:16.826Z,5.90
2022-10-17T02:06:49.751Z,5.90
2022-10-17T02:09:28.108Z,6.40
2022-10-17T02:12:11.374Z,6.30
2022-10-17T02:15:04.460Z,7.50
2022-10-17T02:17:39.112Z,7.10
2022-10-17T02:20:13.796Z,7.20
2022-10-17T02:23:13.969Z,7.40
2022-10-17T02:25:56.191Z,7.10
2022-10-17T02:28:46.723Z,6.50
2022-10-17T02:31:26.129Z,7.70
2022-10-17T02:34:09.154Z,7.50
2022-10-17T02:36:48.776Z,8.20
2022-10-17T02:39:25.290Z,6.90
2022-10-17T02:42:14.409Z,6.70
2022-10-17T02:44:49.225Z,6.90
2022-10-17T02:47:35.491Z,6.00
2022-10-17T02:50:10.241Z,6.90
2022-10-17T02:53:00.299Z,6.20
2022-10-17T02:55:39.616Z,5.80
2022-10-17T02:58:21.368Z,6.60
2022-10-17T03:03:31.723Z,6.90
2022-10-17T03:06:09.638Z,7.00
2022-10-17T03:08:43.407Z,6.50
2022-10-17T03:11:16.816Z,6.80
2022-10-17T03:13:50.524Z,6.80
2022-10-17T03:16:24.409Z,7.40
2022-10-17T03:19:01.399Z,7.70
2022-10-17T03:21:37.262Z,7.50
2022-10-17T03:24:11.160Z,7.90
2022-10-17T03:29:21.022Z,6.90
2022-10-17T03:31:55.155Z,6.70
2022-10-17T03:34:29.107Z,7.20
2022-10-17T03:37:02.601Z,6.80
2022-10-17T03:39:36.647Z,6.60
2022-10-17T03:42:09.640Z,6.90
2022-10-17T03:49:56.698Z,6.00
2022-10-17T03:52:30.575Z,6.20
2022-10-17T03:55:04.552Z,6.80
2022-10-17T03:57:41.106Z,6.70
2022-10-17T04:00:19.600Z,6.80
2022-10-17T04:02:57.986Z,7.10
2022-10-17T04:05:32.949Z,7.90
2022-10-17T04:08:07.518Z,7.20
2022-10-17T04:13:43.373Z,8.60
2022-10-17T04:16:18.479Z,9.10
2022-10-17T04:19:02.223Z,8.80
2022-10-17T04:21:39.682Z,7.50
2022-10-17T04:24:14.795Z,10.30
2022-10-17T04:27:02.805Z,22.40
2022-10-17T04:29:37.730Z,20.20
2022-10-17T04:32:17.705Z,26.00
2022-10-17T04:34:57.042Z,29.20
2022-10-17T04:37:31.973Z,28.70
2022-10-17T04:40:05.798Z,24.80
2022-10-17T04:42:39.044Z,27.30
2022-10-17T04:45:12.720Z,27.50
2022-10-17T04:47:46.776Z,24.50
2022-10-17T04:50:20.244Z,19.80
2022-10-17T04:53:11.030Z,15.30
2022-10-17T04:55:44.411Z,15.60
2022-10-17T04:58:18.135Z,15.50
2022-10-17T05:00:51.886Z,13.80
2022-10-17T05:03:34.605Z,14.20
2022-10-17T05:06:13.607Z,14.90
2022-10-17T05:08:48.763Z,15.50
2022-10-17T05:11:30.104Z,15.90
2022-10-17T05:14:05.808Z,15.00
2022-10-17T05:16:39.583Z,15.00
2022-10-17T05:19:14.829Z,12.50
2022-10-17T05:21:53.286Z,13.20
2022-10-17T05:24:26.839Z,12.60
2022-10-17T05:27:03.149Z,16.60
2022-10-17T05:29:40.230Z,12.70
2022-10-17T05:32:29.315Z,12.60
2022-10-17T05:35:04.737Z,11.80
2022-10-17T05:37:37.870Z,11.20
2022-10-17T05:40:12.019Z,11.80
2022-10-17T05:42:55.700Z,12.10
2022-10-17T05:48:12.661Z,12.00
2022-10-17T05:50:45.241Z,12.10
2022-10-17T05:53:21.731Z,14.00
2022-10-17T05:56:03.565Z,16.50
2022-10-17T05:58:49.790Z,19.00
2022-10-17T06:01:35.051Z,13.60
2022-10-17T06:04:08.352Z,14.00
2022-10-17T06:06:42.063Z,13.20
2022-10-17T06:09:15.461Z,14.60
2022-10-17T06:11:52.171Z,14.20
2022-10-17T06:14:26.013Z,12.60
2022-10-17T06:17:02.891Z,13.40
2022-10-17T06:19:36.229Z,11.60
2022-10-17T06:22:09.195Z,12.70
2022-10-17T06:24:42.904Z,11.20
2022-10-17T06:27:17.340Z,12.00
2022-10-17T06:29:51.837Z,12.50
2022-10-17T06:32:25.574Z,12.50
2022-10-17T06:34:59.578Z,12.30
2022-10-17T06:37:38.213Z,12.30
2022-10-17T06:40:17.779Z,12.40
2022-10-17T06:42:51.675Z,12.50
2022-10-17T06:45:48.984Z,11.20
2022-10-17T06:48:37.490Z,13.10
2022-10-17T06:51:21.592Z,12.90
2022-10-17T06:54:00.619Z,13.00
2022-10-17T06:57:04.350Z,14.90
2022-10-17T07:00:00.653Z,14.50
2022-10-17T07:02:44.503Z,15.00
2022-10-17T07:05:19.760Z,15.70
2022-10-17T07:07:53.033Z,14.60
2022-10-17T07:10:25.795Z,15.90
2022-10-17T07:12:58.509Z,16.20
2022-10-17T07:15:32.955Z,15.90
2022-10-17T07:18:06.156Z,16.20
2022-10-17T07:20:40.733Z,15.80
2022-10-17T07:23:14.074Z,16.20
2022-10-17T07:25:47.254Z,15.10
2022-10-17T07:28:24.438Z,14.70
2022-10-17T07:30:58.606Z,18.50
2022-10-17T07:33:31.878Z,18.70
2022-10-17T07:36:05.787Z,17.90
2022-10-17T07:38:40.259Z,18.20
2022-10-17T07:41:19.230Z,17.20
2022-10-17T07:43:57.812Z,19.30
2022-10-17T07:46:38.787Z,22.20
2022-10-17T07:49:12.118Z,21.40
2022-10-17T07:54:20.019Z,21.40
2022-10-17T07:56:53.003Z,20.40
2022-10-17T07:59:25.975Z,17.40
2022-10-17T08:02:00.032Z,16.70
2022-10-17T08:04:33.101Z,16.00
2022-10-17T08:07:18.543Z,13.30
2022-10-17T08:09:57.220Z,13.30
2022-10-17T08:12:33.186Z,12.70
2022-10-17T08:15:06.498Z,12.90
2022-10-17T08:17:40.234Z,13.00
2022-10-17T08:20:13.508Z,13.10
2022-10-17T08:22:53.281Z,13.30
2022-10-17T08:25:26.331Z,10.80
2022-10-17T08:27:59.944Z,10.90
2022-10-17T08:30:32.966Z,9.80
2022-10-17T08:33:06.148Z,8.30
2022-10-17T08:35:39.665Z,8.90
2022-10-17T08:38:13.504Z,9.00
2022-10-17T08:40:50.731Z,8.40
2022-10-17T08:43:23.164Z,8.30
2022-10-17T08:46:04.906Z,8.10
2022-10-17T08:48:45.628Z,8.60
2022-10-17T08:51:26.907Z,8.90
2022-10-17T08:54:12.657Z,7.70
2022-10-17T08:56:51.311Z,7.70
2022-10-17T08:59:30.458Z,7.30
2022-10-17T09:02:29.506Z,6.60
2022-10-17T09:05:23.897Z,6.80
2022-10-17T09:08:21.012Z,6.70
2022-10-17T09:11:00.619Z,6.20
2022-10-17T09:14:07.952Z,5.60
2022-10-17T09:17:20.257Z,6.10
2022-10-17T09:20:22.955Z,5.40
2022-10-17T09:23:46.437Z,5.40
2022-10-17T09:26:19.846Z,4.80
2022-10-17T09:28:59.907Z,4.90
2022-10-17T09:31:38.772Z,5.10
2022-10-17T09:34:13.811Z,3.80
2022-10-17T09:36:46.671Z,4.50
2022-10-17T09:39:27.077Z,4.40
2022-10-17T09:42:05.040Z,4.60
2022-10-17T09:44:44.495Z,4.20
2022-10-17T09:47:22.830Z,3.60
2022-10-17T09:49:56.014Z,3.90
2022-10-17T09:52:42.512Z,4.20
2022-10-17T09:55:29.132Z,4.70
2022-10-17T09:58:07.628Z,6.40
2022-10-17T10:00:48.119Z,4.60
2022-10-17T10:03:25.424Z,3.90
2022-10-17T10:06:19.405Z,4.50
2022-10-17T10:09:06.004Z,4.40
2022-10-17T10:11:56.233Z,3.90
2022-10-17T10:14:40.323Z,4.10
2022-10-17T10:17:58.244Z,4.10
2022-10-17T10:21:05.513Z,4.10
2022-10-17T10:23:42.108Z,4.20
2022-10-17T10:26:28.315Z,3.90
2022-10-17T10:29:03.670Z,4.00
2022-10-17T10:31:41.988Z,4.00
2022-10-17T10:34:36.322Z,4.00
2022-10-17T10:37:21.546Z,4.10
2022-10-17T10:40:10.754Z,4.30
2022-10-17T10:43:01.283Z,4.10
2022-10-17T10:45:48.429Z,3.80
2022-10-17T10:48:26.227Z,3.60
2022-10-17T10:51:22.385Z,3.90
2022-10-17T10:54:13.335Z,4.90
2022-10-17T10:56:57.022Z,4.50
2022-10-17T10:59:50.096Z,3.70
2022-10-17T11:02:40.840Z,3.70
2022-10-17T11:05:19.211Z,3.90
2022-10-17T11:08:20.767Z,3.80
2022-10-17T11:11:24.543Z,4.10
2022-10-17T11:14:36.355Z,4.40
2022-10-17T11:17:20.023Z,3.80
2022-10-17T11:20:20.324Z,3.80
2022-10-17T11:22:58.201Z,3.80
2022-10-17T11:25:51.960Z,4.30
2022-10-17T11:28:26.990Z,3.70
2022-10-17T11:31:12.016Z,3.90
2022-10-17T11:34:00.181Z,3.70
2022-10-17T11:36:48.194Z,4.90
2022-10-17T11:39:48.992Z,4.20
2022-10-17T11:42:28.126Z,4.10
2022-10-17T11:45:22.701Z,4.20
2022-10-17T11:48:03.812Z,4.30
2022-10-17T11:53:42.760Z,4.30
2022-10-17T11:56:19.252Z,7.10
2022-10-17T11:59:24.280Z,4.90
2022-10-17T12:02:07.479Z,4.40
2022-10-17T12:05:02.994Z,3.70
2022-10-17T12:08:30.606Z,4.20
2022-10-17T12:11:39.286Z,10.40
2022-10-17T12:14:47.234Z,4.70
2022-10-17T12:17:39.891Z,4.60
2022-10-17T12:23:09.468Z,5.10
2022-10-17T12:26:03.288Z,5.00
2022-10-17T12:28:50.445Z,4.20
2022-10-17T12:31:32.506Z,4.20
2022-10-17T12:34:18.947Z,6.60
2022-10-17T12:36:51.918Z,4.50
2022-10-17T12:39:43.930Z,5.10
2022-10-17T12:45:44.543Z,4.40
2022-10-17T12:48:36.395Z,7.50
2022-10-17T12:54:18.142Z,4.10
2022-10-17T12:56:52.009Z,8.20
2022-10-17T12:59:34.885Z,3.80
2022-10-17T13:02:14.521Z,4.10
2022-10-17T13:04:47.224Z,4.90
2022-10-17T13:07:25.365Z,4.50
2022-10-17T13:09:58.495Z,3.90
2022-10-17T13:12:31.657Z,4.00
2022-10-17T13:15:09.172Z,4.40
2022-10-17T13:17:43.779Z,4.40
2022-10-17T13:20:30.399Z,4.00
2022-10-17T13:23:06.016Z,3.70
2022-10-17T13:25:39.593Z,4.20
2022-10-17T13:28:15.742Z,4.40
2022-10-17T13:30:49.967Z,4.20
2022-10-17T13:33:42.740Z,4.40
2022-10-17T13:36:20.761Z,4.00
2022-10-17T13:38:53.675Z,4.00
2022-10-17T13:41:36.641Z,4.10
2022-10-17T13:44:26.182Z,4.20
2022-10-17T13:46:59.005Z,5.40
2022-10-17T13:49:44.579Z,5.60
2022-10-17T13:52:23.014Z,4.60
2022-10-17T13:54:56.429Z,4.50
2022-10-17T13:57:32.851Z,4.80
2022-10-17T14:00:19.085Z,4.10
2022-10-17T14:02:51.726Z,4.00
2022-10-17T14:05:24.415Z,4.50
2022-10-17T14:08:11.950Z,4.90
2022-10-17T14:10:47.168Z,4.30
2022-10-17T14:13:29.024Z,4.50
2022-10-17T14:16:04.583Z,4.80
2022-10-17T14:18:40.911Z,4.50
2022-10-17T14:21:43.971Z,4.50
2022-10-17T14:24:26.230Z,5.20
2022-10-17T14:27:02.536Z,5.20
2022-10-17T14:29:54.084Z,4.90
2022-10-17T14:32:26.590Z,4.90
2022-10-17T14:35:18.808Z,4.90
2022-10-17T14:37:59.712Z,4.90
2022-10-17T14:40:33.756Z,5.20
2022-10-17T14:43:08.148Z,5.40
2022-10-17T14:45:42.221Z,6.10
2022-10-17T14:48:18.723Z,6.90
2022-10-17T14:51:13.117Z,7.90
2022-10-17T14:54:05.044Z,9.10
2022-10-17T14:56:43.553Z,7.60
2022-10-17T14:59:30.125Z,6.40
2022-10-17T15:02:13.286Z,6.30
2022-10-17T15:04:46.084Z,7.20
2022-10-17T15:07:21.413Z,6.20
2022-10-17T15:09:55.178Z,7.10
2022-10-17T15:12:29.119Z,7.60
2022-10-17T15:15:02.039Z,7.80
2022-10-17T15:17:36.257Z,8.60
2022-10-17T15:20:19.796Z,8.90
2022-10-17T15:22:53.057Z,9.50
2022-10-17T15:25:26.181Z,8.60
2022-10-17T15:27:59.842Z,9.80
2022-10-17T15:30:36.339Z,12.40
2022-10-17T15:33:08.987Z,14.50
2022-10-17T15:35:43.935Z,13.80
2022-10-17T15:38:20.121Z,13.60
2022-10-17T15:40:52.721Z,10.90
2022-10-17T15:43:25.342Z,9.10
2022-10-17T15:45:57.887Z,8.30
2022-10-17T15:48:32.843Z,7.30
2022-10-17T15:51:05.838Z,20.00
2022-10-17T15:53:39.320Z,23.70
2022-10-17T15:56:26.963Z,32.00
2022-10-17T15:59:00.934Z,44.60
2022-10-17T16:01:35.455Z,50.90
2022-10-17T16:04:08.191Z,63.30
2022-10-17T16:06:40.674Z,67.00
2022-10-17T16:09:13.548Z,66.50
2022-10-17T16:11:47.053Z,64.20
2022-10-17T16:14:19.888Z,62.70
2022-10-17T16:16:52.254Z,56.80
2022-10-17T16:19:26.711Z,54.70
2022-10-17T16:22:04.339Z,44.90
2022-10-17T16:24:37.055Z,36.30
2022-10-17T16:27:10.252Z,38.60
2022-10-17T16:29:43.101Z,22.40
2022-10-17T16:32:15.594Z,27.40
2022-10-17T16:34:48.410Z,28.80
2022-10-17T16:37:21.002Z,29.50
2022-10-17T16:39:54.036Z,26.80
2022-10-17T16:42:27.112Z,20.80
2022-10-17T16:45:00.092Z,20.50
2022-10-17T16:47:33.284Z,24.90
2022-10-17T16:50:06.533Z,25.60
2022-10-17T16:52:39.662Z,25.90
2022-10-17T16:55:13.028Z,27.40
2022-10-17T16:57:46.460Z,22.40
2022-10-17T17:00:26.366Z,20.50
2022-10-17T17:03:01.316Z,19.70
2022-10-17T17:05:33.854Z,18.10
2022-10-17T17:08:09.115Z,17.00
2022-10-17T17:10:51.565Z,17.50
2022-10-17T17:13:24.400Z,16.30
2022-10-17T17:16:08.544Z,15.20
2022-10-17T17:18:43.131Z,12.30
2022-10-17T17:21:17.032Z,18.40
2022-10-17T17:23:49.717Z,17.40
2022-10-17T17:26:24.839Z,17.00
2022-10-17T17:29:01.804Z,16.60
2022-10-17T17:31:36.642Z,17.30
2022-10-17T17:34:10.302Z,14.30
2022-10-17T17:36:45.378Z,15.60
2022-10-17T17:39:19.090Z,16.40
2022-10-17T17:41:51.879Z,15.80
2022-10-17T17:44:29.345Z,16.30
2022-10-17T17:47:02.702Z,15.90
2022-10-17T17:49:35.918Z,14.20
2022-10-17T17:52:10.330Z,13.70
2022-10-17T17:54:43.895Z,15.10
2022-10-17T17:57:16.724Z,14.30
2022-10-17T17:59:50.132Z,13.60
2022-10-17T18:02:22.752Z,13.50
2022-10-17T18:04:56.788Z,14.10
2022-10-17T18:07:30.954Z,13.50
2022-10-17T18:10:09.601Z,14.20
2022-10-17T18:12:46.240Z,13.90
2022-10-17T18:15:19.438Z,14.00
2022-10-17T18:17:52.341Z,14.10
2022-10-17T18:20:25.489Z,14.90
2022-10-17T18:23:01.889Z,14.20
2022-10-17T18:25:39.075Z,14.50
2022-10-17T18:28:15.669Z,14.00
2022-10-17T18:30:49.513Z,13.90
2022-10-17T18:33:23.184Z,14.20
2022-10-17T18:36:06.952Z,15.00
2022-10-17T18:38:40.719Z,14.80
2022-10-17T18:41:16.226Z,16.30
2022-10-17T18:43:50.394Z,17.00
2022-10-17T18:46:26.250Z,16.30
2022-10-17T18:48:59.579Z,17.00
2022-10-17T18:51:33.622Z,17.10
2022-10-17T18:54:09.670Z,17.70
2022-10-17T18:56:42.921Z,17.30
2022-10-17T18:59:19.479Z,17.30
2022-10-17T19:01:52.801Z,17.70
2022-10-17T19:04:26.168Z,17.50
2022-10-17T19:07:00.134Z,19.20
2022-10-17T19:09:32.960Z,18.70
2022-10-17T19:12:06.524Z,19.30
2022-10-17T19:14:43.228Z,18.30
2022-10-17T19:17:20.329Z,17.80
2022-10-17T19:19:53.916Z,17.70
2022-10-17T19:22:39.178Z,18.20
2022-10-17T19:25:12.306Z,18.60
2022-10-17T19:27:45.449Z,18.10
2022-10-17T19:30:18.962Z,18.00
2022-10-17T19:32:54.494Z,18.40
2022-10-17T19:35:28.259Z,17.40
2022-10-17T19:38:06.838Z,18.20
2022-10-17T19:40:43.850Z,18.00
2022-10-17T19:43:16.975Z,18.70
2022-10-17T19:46:00.331Z,18.60
2022-10-17T19:48:37.384Z,17.30
2022-10-17T19:51:13.006Z,17.00
2022-10-17T19:53:49.889Z,16.90
2022-10-17T19:56:23.276Z,15.70
2022-10-17T19:58:57.646Z,16.80
2022-10-17T20:01:36.201Z,15.90
2022-10-17T20:04:14.364Z,17.10
2022-10-17T20:06:47.768Z,16.70
2022-10-17T20:09:20.370Z,16.30
2022-10-17T20:11:52.808Z,14.90
2022-10-17T20:14:25.520Z,15.20
2022-10-17T20:17:00.525Z,14.90
2022-10-17T20:19:34.247Z,14.00
2022-10-17T20:22:06.918Z,15.70
2022-10-17T20:24:40.238Z,14.60
2022-10-17T20:27:13.397Z,14.60
2022-10-17T20:29:48.487Z,14.90
2022-10-17T20:32:22.232Z,17.40
2022-10-17T20:35:00.393Z,17.40
2022-10-17T20:37:42.591Z,17.60
2022-10-17T20:40:34.021Z,16.00
2022-10-17T20:43:12.358Z,14.60
2022-10-17T20:45:52.016Z,13.70
2022-10-17T20:48:30.075Z,14.30
2022-10-17T20:51:10.732Z,14.00
2022-10-17T20:53:49.416Z,15.00
2022-10-17T20:56:31.712Z,15.30
2022-10-17T20:59:14.440Z,15.30
2022-10-17T21:01:56.446Z,16.10
2022-10-17T21:04:45.918Z,17.20
2022-10-17T21:07:22.861Z,17.70
2022-10-17T21:10:00.260Z,19.70
2022-10-17T21:12:53.080Z,20.40
2022-10-17T21:15:29.664Z,19.00
2022-10-17T21:18:02.538Z,19.80
2022-10-17T21:20:36.140Z,19.70
2022-10-17T21:23:11.390Z,17.70
2022-10-17T21:25:48.200Z,16.40
2022-10-17T21:28:21.438Z,14.90
2022-10-17T21:31:06.828Z,14.00
2022-10-17T21:33:40.729Z,13.00
2022-10-17T21:36:16.901Z,14.70
2022-10-17T21:38:52.636Z,16.00
2022-10-17T21:41:34.257Z,17.10
2022-10-17T21:44:10.077Z,17.70
2022-10-17T21:46:44.515Z,16.70
2022-10-17T21:49:24.560Z,16.80
2022-10-17T21:52:04.706Z,17.00
2022-10-17T21:54:38.155Z,15.50
2022-10-17T21:57:10.858Z,17.70
2022-10-17T21:59:43.401Z,17.20
2022-10-17T22:02:16.789Z,17.40
2022-10-17T22:04:49.697Z,17.30
2022-10-17T22:07:26.531Z,15.00
2022-10-17T22:10:04.632Z,18.10
2022-10-17T22:12:37.847Z,15.60
2022-10-17T22:15:15.836Z,13.20
2022-10-17T22:17:48.919Z,12.70
2022-10-17T22:20:21.637Z,13.00
2022-10-17T22:23:00.378Z,12.50
2022-10-17T22:25:57.401Z,12.00
2022-10-17T22:28:31.597Z,11.90
2022-10-17T22:31:04.330Z,12.40
2022-10-17T22:33:39.265Z,11.70
2022-10-17T22:36:16.919Z,11.20
2022-10-17T22:38:49.944Z,12.10
2022-10-17T22:41:23.797Z,11.70
2022-10-17T22:43:57.330Z,11.30
2022-10-17T22:46:30.997Z,11.00
2022-10-17T22:49:04.407Z,10.90
2022-10-17T22:51:42.770Z,10.40
2022-10-17T22:54:15.962Z,10.00
2022-10-17T22:56:55.900Z,11.00
2022-10-17T22:59:30.009Z,12.10
2022-10-17T23:02:03.913Z,11.70
2022-10-17T23:04:37.788Z,12.40
2022-10-17T23:07:15.223Z,11.40
2022-10-17T23:09:49.819Z,11.40
2022-10-17T23:12:24.017Z,12.20
2022-10-17T23:14:57.980Z,12.00
2022-10-17T23:17:31.134Z,11.80
2022-10-17T23:20:03.653Z,11.20
2022-10-17T23:22:44.816Z,11.00
2022-10-17T23:25:19.221Z,10.30
2022-10-17T23:27:54.736Z,11.30
2022-10-17T23:30:28.763Z,11.90
2022-10-17T23:33:05.861Z,11.30
2022-10-17T23:35:39.370Z,10.70
2022-10-17T23:38:12.639Z,10.70
2022-10-17T23:40:56.266Z,10.40
2022-10-17T23:43:34.678Z,10.20
2022-10-17T23:46:08.368Z,10.20
2022-10-17T23:48:41.157Z,10.70
2022-10-17T23:51:14.130Z,11.60
2022-10-17T23:53:52.470Z,10.90
2022-10-17T23:56:25.879Z,10.40
2022-10-17T23:58:59.005Z,11.70
